Time;durP1;ratioP1;P1;durP2;ratioP2;P2;SDS_P1;SDS_P2;PMS_P1;PMS_P2;Temp;Humidity;BMP_temperature;BMP_pressure;BME280_temperature;BME280_humidity;BME280_pressure;Samples;Min_cycle;Max_cycle;Signal;HPM_P1;HPM_P2
2023/04/02 02:03:57;;;;;;;18.83;10.02;;;7.60;96.80;;;;;;5843493;23;86949;31
2023/04/02 02:27:27;;;;;;;14.90;8.93;;;7.40;96.80;;;;;;504447;27;85230;-89
2023/04/02 02:30:51;;;;;;;16.40;9.40;;;7.40;96.80;;;;;;5959321;23;87029;31
2023/04/02 02:52:43;;;;;;;10.80;7.85;;;7.20;96.80;;;;;;5899418;23;87105;31
2023/04/02 03:02:32;;;;;;;15.30;9.15;;;7.20;96.80;;;;;;5897413;23;87108;31
2023/04/02 03:18:58;;;;;;;11.63;7.20;;;7.20;96.30;;;;;;5642040;23;86934;31
2023/04/02 03:33:05;;;;;;;11.30;7.82;;;7.10;96.20;;;;;;5648439;23;87211;31
2023/04/02 03:36:37;;;;;;;10.65;7.60;;;7.10;96.20;;;;;;5675695;23;87010;31
2023/04/02 03:40:03;;;;;;;11.13;7.33;;;7.00;96.20;;;;;;5596899;23;86916;31
2023/04/02 03:53:55;;;;;;;10.82;7.68;;;7.00;96.20;;;;;;5650151;23;86993;31
2023/04/02 04:02:27;;;;;;;12.30;7.22;;;7.00;96.20;;;;;;5896224;23;87030;31
2023/04/02 04:05:45;;;;;;;12.05;8.25;;;6.90;96.00;;;;;;4815858;29;86458;-94
2023/04/02 04:08:55;;;;;;;12.98;7.65;;;6.80;95.80;;;;;;4709186;29;85456;-85
2023/04/02 04:12:26;;;;;;;12.30;7.50;;;6.80;96.00;;;;;;4691216;29;84856;-90
2023/04/02 04:15:43;;;;;;;10.68;7.13;;;6.80;95.90;;;;;;4628637;30;84933;-89
2023/04/02 04:18:28;;;;;;;15.23;7.80;;;6.80;95.90;;;;;;4588316;30;86027;-93
2023/04/02 04:39:53;;;;;;;14.55;8.82;;;6.70;96.00;;;;;;4908734;28;85882;-91
2023/04/02 04:43:02;;;;;;;15.60;8.75;;;6.70;96.00;;;;;;4834637;29;85374;-92
2023/04/02 04:46:14;;;;;;;12.77;8.45;;;6.70;96.10;;;;;;4761345;29;84905;-90
2023/04/02 04:49:21;;;;;;;14.20;8.33;;;6.60;96.20;;;;;;4745884;29;85217;-89
2023/04/02 04:52:22;;;;;;;12.50;8.30;;;6.60;96.00;;;;;;4742457;29;85281;-89
2023/04/02 04:54:48;;;;;;;11.38;8.38;;;6.60;96.00;;;;;;4752306;29;85169;-91
2023/04/02 04:57:37;;;;;;;12.40;8.43;;;6.50;96.10;;;;;;4741388;29;85024;-92
2023/04/02 05:00:27;;;;;;;13.55;8.40;;;6.50;96.10;;;;;;4722099;30;85065;-91
2023/04/02 05:03:17;;;;;;;14.05;8.30;;;6.50;96.10;;;;;;4688315;30;85496;-92
2023/04/02 05:05:44;;;;;;;12.48;7.97;;;6.50;95.90;;;;;;4661586;30;85580;-92
2023/04/02 05:08:16;;;;;;;14.15;8.52;;;6.40;95.80;;;;;;4662437;30;85132;-92
2023/04/02 05:11:14;;;;;;;14.85;8.80;;;6.40;95.90;;;;;;4643424;30;84933;-91
2023/04/02 05:14:05;;;;;;;14.07;8.75;;;6.40;96.10;;;;;;4624849;30;85984;-92
2023/04/02 05:17:03;;;;;;;14.77;9.70;;;6.40;96.00;;;;;;4629118;30;84945;-89
2023/04/02 05:19:47;;;;;;;15.48;9.15;;;6.40;96.00;;;;;;4650447;30;85068;-90
2023/04/02 05:22:42;;;;;;;16.42;10.02;;;6.40;96.10;;;;;;4682612;30;84999;-90
2023/04/02 05:25:29;;;;;;;17.77;10.48;;;6.40;96.10;;;;;;4669801;30;85582;-89
2023/04/02 05:27:58;;;;;;;20.60;11.98;;;6.40;96.00;;;;;;4663717;30;87394;-92
2023/04/02 05:30:45;;;;;;;21.15;12.25;;;6.40;95.80;;;;;;4662412;30;86289;-89
2023/04/02 05:33:32;;;;;;;19.73;12.57;;;6.40;95.90;;;;;;4612500;30;85022;-91
2023/04/02 05:36:20;;;;;;;19.35;12.43;;;6.30;95.70;;;;;;4615113;30;85969;-92
2023/04/02 05:39:10;;;;;;;21.80;12.45;;;6.30;96.00;;;;;;4617869;30;85103;-90
2023/04/02 05:41:40;;;;;;;17.48;11.13;;;6.30;95.80;;;;;;4616473;30;85094;-89
2023/04/02 05:44:40;;;;;;;17.55;11.90;;;6.30;95.50;;;;;;4612280;30;85053;-90
2023/04/02 05:47:19;;;;;;;19.75;11.13;;;6.30;95.70;;;;;;4610754;30;85913;-90
2023/04/02 05:49:54;;;;;;;17.55;10.57;;;6.30;95.80;;;;;;4607677;30;85395;-90
2023/04/02 05:52:38;;;;;;;;;;;;;;;;;;;;;
2023/04/02 05:55:04;;;;;;;18.92;11.30;;;6.30;95.70;;;;;;4661438;30;111265;-88
2023/04/02 05:57:36;;;;;;;17.42;10.90;;;6.30;95.80;;;;;;4663808;30;86025;-90
2023/04/02 06:00:07;;;;;;;20.58;12.02;;;6.30;95.70;;;;;;4674621;30;84850;-92
2023/04/02 06:02:38;;;;;;;20.00;12.27;;;6.30;95.80;;;;;;4678363;30;84937;-89
2023/04/02 06:05:14;;;;;;;21.63;12.40;;;6.20;95.50;;;;;;4672140;30;85159;-89
2023/04/02 06:07:40;;;;;;;24.25;12.55;;;6.20;95.60;;;;;;4684328;30;85449;-92
2023/04/02 06:10:06;;;;;;;22.83;14.18;;;6.20;95.70;;;;;;4730450;29;84943;-90
2023/04/02 06:12:44;;;;;;;28.20;14.50;;;6.20;95.50;;;;;;4781007;29;85175;-91
2023/04/02 06:15:15;;;;;;;23.27;15.45;;;6.20;95.70;;;;;;4781284;29;85253;-88
2023/04/02 06:17:57;;;;;;;24.95;14.30;;;6.10;95.50;;;;;;4801599;29;85804;-88
2023/04/02 06:20:23;;;;;;;23.27;14.02;;;6.20;95.50;;;;;;4813010;29;85421;-90
2023/04/02 06:22:55;;;;;;;28.42;16.05;;;6.10;95.50;;;;;;4829972;29;85083;-89
2023/04/02 06:26:00;;;;;;;27.58;15.25;;;6.10;95.70;;;;;;4813867;29;85557;-92
2023/04/02 06:28:48;;;;;;;25.92;15.82;;;6.10;95.50;;;;;;4815833;29;85357;-91
2023/04/02 06:31:39;;;;;;;24.17;15.20;;;6.20;95.60;;;;;;4821745;29;85469;-91
2023/04/02 06:34:20;;;;;;;32.90;15.30;;;6.20;95.60;;;;;;4801217;29;85051;-91
2023/04/02 06:36:49;;;;;;;32.17;15.35;;;6.20;95.70;;;;;;4802249;29;85867;-89
2023/04/02 06:39:35;;;;;;;25.75;14.23;;;6.20;95.40;;;;;;4768745;29;85732;-92
2023/04/02 06:42:29;;;;;;;25.83;16.00;;;6.10;95.50;;;;;;4779569;29;85273;-89
2023/04/02 06:44:55;;;;;;;27.90;16.27;;;6.20;95.40;;;;;;4756421;29;85759;-91
2023/04/02 06:47:31;;;;;;;24.20;16.05;;;6.10;95.40;;;;;;4729222;29;85723;-93
2023/04/02 06:50:30;;;;;;;26.17;15.40;;;6.10;95.60;;;;;;4765808;29;85730;-92
2023/04/02 06:53:57;;;;;;;28.85;15.35;;;6.10;95.60;;;;;;4770574;29;85280;-92
2023/04/02 06:56:49;;;;;;;28.42;15.20;;;6.10;95.50;;;;;;4648351;30;85282;-91
2023/04/02 06:59:22;;;;;;;23.58;14.27;;;6.20;95.30;;;;;;4643107;30;84912;-94
2023/04/02 07:01:56;;;;;;;22.95;15.13;;;6.10;95.30;;;;;;4640163;30;86132;-92
2023/04/02 07:05:23;;;;;;;31.13;16.90;;;6.10;95.20;;;;;;4598659;30;85529;-93
2023/04/02 07:08:12;;;;;;;33.38;18.02;;;6.10;95.40;;;;;;4644413;30;85736;-93
2023/04/02 07:27:01;;;;;;;25.92;15.32;;;6.10;95.20;;;;;;5488191;22;16062167;-91
2023/04/02 07:30:07;;;;;;;28.30;16.02;;;6.20;95.00;;;;;;6009856;23;85260;-93
2023/04/02 07:32:34;;;;;;;31.88;17.02;;;6.20;95.40;;;;;;5976061;23;85003;-91
2023/04/02 07:35:00;;;;;;;37.45;18.23;;;6.20;95.20;;;;;;5950528;23;85186;-86
2023/04/02 07:37:26;;;;;;;42.70;20.10;;;6.20;94.60;;;;;;5935966;23;85693;-85
2023/04/02 07:39:51;;;;;;;34.33;17.33;;;6.20;94.90;;;;;;5942247;23;86990;-93
2023/04/02 07:42:17;;;;;;;29.48;15.27;;;6.20;94.90;;;;;;5915041;23;84999;-92
2023/04/02 07:44:43;;;;;;;24.08;14.55;;;6.10;94.80;;;;;;5931956;23;86182;-78
2023/04/02 07:47:09;;;;;;;22.33;13.57;;;6.30;95.50;;;;;;5904345;23;90421;-77
2023/04/02 07:49:35;;;;;;;21.67;13.90;;;6.40;94.50;;;;;;5913608;23;88808;-80
2023/04/02 07:52:00;;;;;;;20.20;12.93;;;6.40;94.40;;;;;;5993900;22;86300;-76
2023/04/02 07:54:26;;;;;;;23.13;14.32;;;6.50;94.20;;;;;;6225997;22;86495;-77
2023/04/02 07:56:52;;;;;;;22.55;12.85;;;6.40;94.00;;;;;;6226438;22;86336;-77
2023/04/02 07:59:17;;;;;;;17.23;11.18;;;6.40;93.90;;;;;;6224794;22;89528;-77
2023/04/02 08:01:43;;;;;;;17.13;10.02;;;6.40;93.60;;;;;;6222772;22;86094;-73
2023/04/02 08:04:19;;;;;;;15.82;8.98;;;6.40;93.40;;;;;;6221358;22;85874;-72
2023/04/02 08:06:46;;;;;;;15.68;9.05;;;6.50;93.50;;;;;;6214945;22;86844;-72
2023/04/02 08:09:12;;;;;;;12.35;7.97;;;6.50;92.90;;;;;;6222680;22;86537;-78
2023/04/02 08:11:39;;;;;;;13.20;7.63;;;6.50;93.00;;;;;;6228206;22;85966;-72
2023/04/02 08:14:04;;;;;;;12.07;7.13;;;6.50;92.80;;;;;;6221175;22;88054;-72
2023/04/02 08:16:51;;;;;;;13.32;7.80;;;6.50;92.90;;;;;;6220623;22;87395;-72
2023/04/02 08:19:17;;;;;;;12.82;7.65;;;6.50;92.80;;;;;;6222843;22;85941;-74
2023/04/02 08:21:43;;;;;;;13.48;7.72;;;6.40;92.70;;;;;;6224948;22;86220;-76
2023/04/02 08:24:09;;;;;;;15.25;7.32;;;6.40;92.60;;;;;;6221762;22;86347;-74
2023/04/02 08:26:35;;;;;;;15.07;7.97;;;6.40;92.30;;;;;;6218053;22;88020;-84
2023/04/02 08:29:01;;;;;;;13.18;7.00;;;6.40;92.70;;;;;;6221814;22;88180;-78
2023/04/02 08:31:27;;;;;;;10.85;6.93;;;6.40;92.60;;;;;;6221935;22;86013;-80
2023/04/02 08:33:55;;;;;;;14.30;7.50;;;6.50;92.70;;;;;;6221672;22;86012;-78
2023/04/02 09:05:26;;;;;;;14.48;7.10;;;6.30;92.00;;;;;;6230374;22;87107;-76
2023/04/02 09:07:55;;;;;;;12.25;7.28;;;6.30;91.90;;;;;;6251367;22;87422;-76
2023/04/02 09:10:30;;;;;;;18.17;7.90;;;6.20;91.90;;;;;;6250145;22;86315;-75
2023/04/02 09:12:57;;;;;;;16.02;7.47;;;6.20;91.90;;;;;;6251753;22;85972;-75
2023/04/02 09:19:17;;;;;;;15.20;7.47;;;6.30;91.90;;;;;;6251095;22;86089;-74
2023/04/02 09:22:00;;;;;;;10.23;6.43;;;6.30;91.70;;;;;;6219456;22;85963;-73
2023/04/02 09:24:26;;;;;;;15.50;7.63;;;6.40;92.00;;;;;;6218870;22;85721;-74
2023/04/02 09:26:52;;;;;;;12.10;6.80;;;6.40;92.30;;;;;;6219497;22;87297;-74
2023/04/02 09:29:20;;;;;;;12.82;6.50;;;6.50;92.00;;;;;;6219380;22;86482;-74
2023/04/02 09:31:54;;;;;;;15.00;6.93;;;6.50;91.90;;;;;;6220083;22;86199;-74
2023/04/02 09:34:35;;;;;;;16.38;7.22;;;6.50;91.70;;;;;;6218659;22;85663;-79
2023/04/02 09:40:26;;;;;;;11.43;6.00;;;6.70;91.60;;;;;;6218782;22;85845;-74
2023/04/02 09:43:13;;;;;;;14.32;6.78;;;6.60;90.80;;;;;;6219101;22;86085;-75
2023/04/02 09:45:41;;;;;;;9.80;5.57;;;6.60;91.10;;;;;;6218007;22;86113;-73
2023/04/02 09:48:23;;;;;;;14.63;7.28;;;6.60;91.00;;;;;;6218331;22;87443;-73
2023/04/02 09:50:48;;;;;;;11.50;6.90;;;6.60;91.00;;;;;;6219172;22;86519;-77
2023/04/02 09:53:29;;;;;;;13.18;7.00;;;6.60;91.50;;;;;;6220580;22;85850;-76
2023/04/02 09:56:15;;;;;;;15.07;7.28;;;6.60;91.20;;;;;;6220259;22;86402;-78
2023/04/02 09:58:43;;;;;;;17.30;6.65;;;6.60;91.20;;;;;;6219769;22;87237;-77
2023/04/02 10:01:28;;;;;;;11.55;6.47;;;6.70;90.90;;;;;;6219748;22;86623;-76
2023/04/02 10:03:55;;;;;;;12.32;6.28;;;6.60;91.00;;;;;;6219579;22;86244;-78
2023/04/02 10:06:20;;;;;;;10.25;5.50;;;6.70;91.10;;;;;;6219982;22;88200;-78
2023/04/02 10:08:46;;;;;;;9.77;5.85;;;6.70;91.00;;;;;;6220309;22;87901;-77
2023/04/02 10:11:13;;;;;;;9.88;5.57;;;6.70;90.80;;;;;;6220409;22;86096;-77
2023/04/02 10:23:45;;;;;;;14.02;6.60;;;6.70;90.70;;;;;;6219208;22;86524;-81
2023/04/02 10:26:14;;;;;;;14.07;6.53;;;6.70;90.80;;;;;;6221030;22;86116;-78
2023/04/02 10:28:58;;;;;;;10.85;6.07;;;6.80;90.70;;;;;;6220150;22;86199;-77
2023/04/02 10:31:30;;;;;;;13.05;6.03;;;6.80;90.50;;;;;;6219770;22;87192;-78
2023/04/02 10:34:03;;;;;;;14.98;6.13;;;6.80;90.40;;;;;;6192934;22;88808;-77
2023/04/02 10:36:49;;;;;;;13.20;6.65;;;6.80;90.10;;;;;;6220338;22;86313;-75
2023/04/02 10:39:26;;;;;;;14.85;6.30;;;6.80;90.30;;;;;;6220047;22;86269;-76
2023/04/02 10:45:42;;;;;;;7.82;4.88;;;6.90;90.30;;;;;;6223226;22;85985;-80
2023/04/02 10:48:29;;;;;;;13.32;6.35;;;7.00;90.30;;;;;;6099114;23;86358;-83
2023/04/02 10:51:04;;;;;;;10.35;5.53;;;7.00;89.90;;;;;;6096691;23;86290;-80
2023/04/02 10:53:41;;;;;;;11.27;5.72;;;6.90;90.20;;;;;;6102802;23;87952;-86
2023/04/02 10:56:11;;;;;;;11.70;6.53;;;6.90;90.40;;;;;;6092582;23;88785;-85
2023/04/02 11:01:15;;;;;;;14.18;6.25;;;7.10;89.80;;;;;;6274362;22;85042;-85
2023/04/02 11:03:58;;;;;;;9.73;5.38;;;7.20;89.50;;;;;;6241732;22;89710;-81
2023/04/02 11:06:42;;;;;;;11.52;5.85;;;7.20;89.10;;;;;;6275326;22;85958;-84
2023/04/02 11:09:18;;;;;;;12.50;5.93;;;7.30;88.10;;;;;;6272151;22;85631;-84
2023/04/02 11:14:23;;;;;;;10.45;5.03;;;7.30;88.90;;;;;;6230714;22;86267;-81
2023/04/02 11:16:59;;;;;;;9.48;5.10;;;7.40;88.60;;;;;;6211331;22;87058;-79
2023/04/02 11:19:30;;;;;;;10.52;4.88;;;7.40;87.40;;;;;;6192008;22;86182;-79
2023/04/02 11:22:20;;;;;;;9.32;4.43;;;7.40;88.20;;;;;;6190970;22;86516;-79
2023/04/02 11:24:47;;;;;;;11.43;4.80;;;7.50;88.20;;;;;;6191439;22;87360;-81
2023/04/02 11:27:34;;;;;;;8.88;4.90;;;7.50;87.50;;;;;;6205515;22;86754;-79
2023/04/02 11:30:12;;;;;;;9.70;4.68;;;7.60;85.70;;;;;;6218847;22;91389;-80
2023/04/02 11:32:48;;;;;;;12.80;4.85;;;7.50;86.20;;;;;;6183938;22;88198;-79
2023/04/02 11:35:38;;;;;;;12.20;4.65;;;7.50;86.30;;;;;;6181804;22;89234;-81
2023/04/02 11:38:15;;;;;;;7.35;4.53;;;7.50;85.50;;;;;;6184863;22;89073;-80
2023/04/02 11:40:53;;;;;;;11.85;5.57;;;7.60;85.40;;;;;;6206835;22;85677;-83
2023/04/02 11:48:32;;;;;;;8.90;4.85;;;7.70;87.40;;;;;;6190098;22;87591;31
2023/04/02 12:12:25;;;;;;;7.10;4.03;;;7.90;84.10;;;;;;6163953;22;87240;31
2023/04/02 12:38:06;;;;;;;6.63;4.05;;;8.00;83.30;;;;;;6155617;22;86515;31
2023/04/02 12:41:17;;;;;;;9.25;4.28;;;8.00;82.70;;;;;;6154200;22;87215;31
2023/04/02 13:04:22;;;;;;;10.23;4.75;;;8.00;82.90;;;;;;6246036;22;84786;-80
2023/04/02 13:14:33;;;;;;;8.38;4.57;;;8.10;81.00;;;;;;6233174;22;86661;-79
2023/04/02 13:32:27;;;;;;;9.30;4.20;;;8.30;83.00;;;;;;6158023;22;87777;-78
2023/04/02 13:55:19;;;;;;;8.75;4.53;;;8.40;80.50;;;;;;6164789;22;87055;31
2023/04/02 14:23:19;;;;;;;6.68;3.90;;;8.50;79.20;;;;;;6230713;22;85766;-82
2023/04/02 14:26:10;;;;;;;6.85;3.88;;;8.60;80.30;;;;;;6209339;22;87855;-82
2023/04/02 14:29:06;;;;;;;8.13;3.65;;;8.60;79.20;;;;;;6210180;22;87411;-89
2023/04/02 14:35:16;;;;;;;;;;;;;;;;;;;;;
2023/04/02 14:38:15;;;;;;;8.02;4.10;;;8.60;78.40;;;;;;6114163;22;114215;-81
2023/04/02 14:51:25;;;;;;;6.43;3.72;;;8.50;79.90;;;;;;6175175;22;87309;-82
2023/04/02 14:53:57;;;;;;;7.32;3.83;;;8.50;79.90;;;;;;6238438;22;85673;-85
2023/04/02 14:56:24;;;;;;;5.28;3.40;;;8.50;80.20;;;;;;6238722;22;85764;-83
2023/04/02 14:59:33;;;;;;;6.07;3.80;;;8.60;79.40;;;;;;6212383;22;89714;-83
2023/04/02 15:02:12;;;;;;;6.32;3.28;;;8.50;77.90;;;;;;6209649;22;87962;-79
2023/04/02 15:07:27;;;;;;;7.15;4.20;;;8.50;80.70;;;;;;6223702;22;85960;-78
2023/04/02 15:10:26;;;;;;;8.70;4.15;;;8.50;78.00;;;;;;6221617;22;88074;-80
2023/04/02 15:12:55;;;;;;;8.20;4.60;;;8.40;78.30;;;;;;6221330;22;86870;-82
2023/04/02 15:15:35;;;;;;;8.27;3.90;;;8.40;78.20;;;;;;6222372;22;85753;-80
2023/04/02 15:18:01;;;;;;;5.88;3.20;;;8.40;79.00;;;;;;6178782;22;85851;-84
2023/04/02 15:32:24;;;;;;;8.85;3.83;;;8.50;79.80;;;;;;6241433;22;88040;-75
2023/04/02 15:35:26;;;;;;;6.60;4.03;;;8.50;78.50;;;;;;6249882;22;86580;-75
2023/04/02 15:38:10;;;;;;;10.52;4.57;;;8.50;78.00;;;;;;6250910;22;86273;-75
2023/04/02 16:07:58;;;;;;;6.30;4.72;;;8.30;77.70;;;;;;6250651;22;86294;-75
2023/04/02 16:10:40;;;;;;;7.93;5.03;;;8.30;77.70;;;;;;6223450;22;89250;-76
2023/04/02 16:13:34;;;;;;;9.35;5.35;;;8.20;77.20;;;;;;6249548;22;86836;-76
2023/04/02 16:19:59;;;;;;;8.50;5.53;;;8.10;78.30;;;;;;6248427;22;86165;-80
2023/04/02 16:22:59;;;;;;;10.73;5.30;;;8.10;79.50;;;;;;6222566;22;86005;-82
2023/04/02 16:25:30;;;;;;;8.20;5.32;;;8.10;78.50;;;;;;6219758;22;86741;-81
2023/04/02 16:41:58;;;;;;;9.43;5.85;;;7.90;77.30;;;;;;6217574;22;87073;-81
2023/04/02 16:44:38;;;;;;;8.07;6.15;;;7.90;78.10;;;;;;6221678;22;87890;-81
2023/04/02 17:18:27;;;;;;;10.38;7.00;;;7.80;76.00;;;;;;6248499;22;87345;-80
2023/04/02 17:26:36;;;;;;;7.63;6.07;;;7.60;75.20;;;;;;6253345;22;85678;-86
2023/04/02 17:29:43;;;;;;;5.38;4.88;;;7.50;76.60;;;;;;6159888;22;84962;-85
2023/04/02 17:32:35;;;;;;;7.18;5.57;;;7.50;76.50;;;;;;6129710;22;85297;-84
2023/04/02 17:35:34;;;;;;;10.13;5.45;;;7.40;76.50;;;;;;6128325;22;84972;-88
2023/04/02 17:41:32;;;;;;;8.23;5.68;;;7.30;77.90;;;;;;6124825;22;84945;-88
2023/04/02 17:44:43;;;;;;;7.85;5.63;;;7.20;78.60;;;;;;6127876;22;84972;-89
2023/04/02 17:47:22;;;;;;;8.85;5.95;;;7.20;76.90;;;;;;6040083;23;85468;-88
2023/04/02 17:50:28;;;;;;;8.35;5.80;;;7.10;79.20;;;;;;6038961;23;85132;-89
2023/04/02 17:53:23;;;;;;;7.22;5.35;;;7.00;80.00;;;;;;5840760;24;87699;-89
2023/04/02 17:56:34;;;;;;;8.13;5.85;;;7.00;79.90;;;;;;5844073;24;85603;-90
2023/04/02 17:59:49;;;;;;;9.65;5.80;;;6.90;80.30;;;;;;5762022;24;85733;-84
2023/04/02 18:02:54;;;;;;;9.18;5.82;;;6.80;81.40;;;;;;5692657;24;87296;-88
2023/04/02 18:05:44;;;;;;;7.85;6.00;;;6.70;80.80;;;;;;5702794;24;90104;-85
2023/04/02 18:08:38;;;;;;;8.80;5.93;;;6.60;81.90;;;;;;5669567;24;85141;-89
2023/04/02 18:11:04;;;;;;;11.77;6.38;;;6.50;82.30;;;;;;5644913;25;85401;-89
2023/04/02 18:13:39;;;;;;;9.38;6.30;;;6.40;83.00;;;;;;5659254;24;89535;-90
2023/04/02 18:16:12;;;;;;;10.82;6.45;;;6.30;81.80;;;;;;5561298;25;87808;-88
2023/04/02 18:19:13;;;;;;;9.80;6.60;;;6.10;81.80;;;;;;5633280;25;85117;-90
2023/04/02 18:21:52;;;;;;;10.85;6.80;;;6.00;82.00;;;;;;5632136;25;85539;-91
2023/04/02 18:28:16;;;;;;;10.68;6.93;;;5.90;82.80;;;;;;5653734;24;85786;-92
2023/04/02 18:30:54;;;;;;;9.88;6.80;;;5.80;83.10;;;;;;5773599;24;85438;-89
2023/04/02 18:33:53;;;;;;;8.80;7.00;;;5.70;84.20;;;;;;5788488;24;85369;-92
2023/04/02 18:36:35;;;;;;;8.85;7.20;;;5.70;84.40;;;;;;5873943;23;88898;-92
2023/04/02 18:52:29;;;;;;;10.43;7.50;;;5.60;87.40;;;;;;6078308;23;85523;-90
2023/04/02 18:55:02;;;;;;;9.23;7.40;;;5.60;87.60;;;;;;6114432;22;84932;-90
2023/04/02 18:57:32;;;;;;;13.30;8.57;;;5.50;87.70;;;;;;6132809;22;85223;-90
2023/04/02 19:00:26;;;;;;;11.82;8.13;;;5.50;87.40;;;;;;6097142;23;88232;-88
2023/04/02 19:03:13;;;;;;;13.38;8.35;;;5.40;87.70;;;;;;6066779;23;87889;-92
2023/04/02 19:05:43;;;;;;;12.50;9.20;;;5.40;88.20;;;;;;6067962;23;85247;-90
2023/04/02 19:08:36;;;;;;;14.48;8.32;;;5.30;88.60;;;;;;6067878;23;85744;-89
2023/04/02 19:11:30;;;;;;;10.43;8.67;;;5.30;88.90;;;;;;6068138;23;87793;-90
2023/04/02 19:14:11;;;;;;;12.48;9.20;;;5.30;89.20;;;;;;6042996;23;85948;-93
2023/04/02 19:16:56;;;;;;;13.63;9.13;;;5.30;89.60;;;;;;6052631;23;85901;-90
2023/04/02 19:19:26;;;;;;;12.95;9.00;;;5.30;89.80;;;;;;6068282;23;85009;-92
2023/04/02 19:29:43;;;;;;;13.65;9.75;;;5.30;89.70;;;;;;6065686;23;85607;-91
2023/04/02 19:32:08;;;;;;;13.07;8.53;;;5.20;90.00;;;;;;6040070;23;86180;-92
2023/04/02 19:34:45;;;;;;;10.93;7.68;;;5.30;90.30;;;;;;6008199;23;88776;-89
2023/04/02 19:37:20;;;;;;;15.40;8.57;;;5.30;89.90;;;;;;6009722;23;89048;-92
2023/04/02 19:40:06;;;;;;;13.63;8.30;;;5.30;90.00;;;;;;6048680;22;86502;-92
2023/04/02 19:42:51;;;;;;;11.43;7.68;;;5.30;89.90;;;;;;6131916;22;85847;-86
2023/04/02 19:45:22;;;;;;;9.95;7.65;;;5.30;89.70;;;;;;6125880;23;88855;-92
2023/04/02 19:47:48;;;;;;;18.30;8.98;;;5.30;89.40;;;;;;6096276;23;87646;-92
2023/04/02 19:50:14;;;;;;;10.95;7.55;;;5.30;88.80;;;;;;6098027;23;85531;-89
2023/04/02 19:52:40;;;;;;;12.45;7.90;;;5.30;88.40;;;;;;6097456;23;85668;-90
2023/04/02 19:55:06;;;;;;;13.18;7.70;;;5.30;88.60;;;;;;6096659;23;87423;-91
2023/04/02 19:57:31;;;;;;;12.40;7.35;;;5.30;88.00;;;;;;6095900;23;87845;-90
2023/04/02 19:59:57;;;;;;;16.55;8.27;;;5.30;88.20;;;;;;6097652;23;85643;-89
2023/04/02 20:02:23;;;;;;;15.13;8.57;;;5.30;88.60;;;;;;6095811;23;85679;-92
2023/04/02 20:04:48;;;;;;;11.60;8.40;;;5.30;88.50;;;;;;6072205;23;87154;-91
2023/04/02 20:07:20;;;;;;;13.48;8.75;;;5.30;89.00;;;;;;6072084;23;86097;-93
2023/04/02 20:09:45;;;;;;;11.27;8.43;;;5.30;88.90;;;;;;6097644;23;85634;-92
2023/04/02 20:12:11;;;;;;;16.45;8.55;;;5.30;89.20;;;;;;6096056;23;85767;-90
2023/04/02 20:14:36;;;;;;;12.57;8.35;;;5.30;89.40;;;;;;6093561;23;86428;-91
2023/04/02 20:17:02;;;;;;;14.35;8.50;;;5.30;89.80;;;;;;6117977;23;88710;-89
2023/04/02 20:19:28;;;;;;;12.32;8.98;;;5.30;89.00;;;;;;6123235;23;85132;-92
2023/04/02 20:21:53;;;;;;;12.50;8.10;;;5.40;88.70;;;;;;6125023;23;86038;-93
2023/04/02 20:24:19;;;;;;;10.88;8.32;;;5.30;88.00;;;;;;6130330;22;86558;-92
2023/04/02 20:26:45;;;;;;;14.43;8.50;;;5.40;88.10;;;;;;6133271;22;88456;-90
2023/04/02 20:29:10;;;;;;;14.75;8.63;;;5.40;88.10;;;;;;6133525;22;85602;-92
2023/04/02 20:31:36;;;;;;;15.88;8.80;;;5.40;88.20;;;;;;6158043;22;85520;-87
2023/04/02 20:34:04;;;;;;;13.00;8.05;;;5.40;88.10;;;;;;6205193;22;86606;-93
2023/04/02 20:36:30;;;;;;;11.68;8.23;;;5.30;87.80;;;;;;6221568;22;86156;-91
2023/04/02 20:38:56;;;;;;;14.00;9.02;;;5.30;87.70;;;;;;6222727;22;85619;-93
2023/04/02 20:41:22;;;;;;;16.83;8.43;;;5.20;87.30;;;;;;6222301;22;84821;-92
2023/04/02 20:43:49;;;;;;;13.60;8.63;;;5.10;87.00;;;;;;6194905;22;89459;-91
2023/04/02 20:46:15;;;;;;;11.85;8.05;;;5.10;87.30;;;;;;6194806;22;89115;-91
2023/04/02 20:48:41;;;;;;;15.65;10.05;;;5.00;87.00;;;;;;6222253;22;85316;-92
2023/04/02 20:51:10;;;;;;;15.52;8.77;;;4.90;87.60;;;;;;6220587;22;84872;-91
2023/04/02 20:53:36;;;;;;;13.40;7.95;;;4.90;87.70;;;;;;6222290;22;85959;-92
2023/04/02 20:56:04;;;;;;;13.13;8.32;;;4.80;87.70;;;;;;6217464;22;87587;-90
2023/04/02 20:58:32;;;;;;;17.25;9.30;;;4.80;87.80;;;;;;6194967;22;85590;-92
2023/04/02 21:01:14;;;;;;;13.57;8.55;;;4.70;87.70;;;;;;6222035;22;85424;-91
2023/04/02 21:03:40;;;;;;;11.70;8.07;;;4.60;88.40;;;;;;6195783;22;89489;-93
2023/04/02 21:06:15;;;;;;;12.60;8.70;;;4.60;88.50;;;;;;6195077;22;88665;-93
2023/04/02 21:08:41;;;;;;;11.98;8.63;;;4.50;88.10;;;;;;6195579;22;85620;-91
2023/04/02 21:11:07;;;;;;;13.43;9.18;;;4.40;88.20;;;;;;6195358;22;84944;-93
2023/04/02 21:13:37;;;;;;;13.13;8.63;;;4.40;89.00;;;;;;6194813;22;89159;-89
2023/04/02 21:16:23;;;;;;;15.63;9.30;;;4.30;88.30;;;;;;6195089;22;88448;-91
2023/04/02 21:18:51;;;;;;;15.32;9.45;;;4.30;88.60;;;;;;6196148;22;85220;-92
2023/04/02 21:21:18;;;;;;;14.48;9.00;;;4.20;89.70;;;;;;6195556;22;85017;-93
2023/04/02 21:23:44;;;;;;;18.33;9.50;;;4.10;89.20;;;;;;6195103;22;88894;-91
2023/04/02 21:26:13;;;;;;;12.82;8.93;;;4.10;88.90;;;;;;6196010;22;87669;-88
2023/04/02 21:28:39;;;;;;;14.65;9.00;;;4.00;89.30;;;;;;6195719;22;85583;-89
2023/04/02 21:31:10;;;;;;;17.02;9.27;;;4.00;89.50;;;;;;6196183;22;85630;-92
2023/04/02 21:33:42;;;;;;;16.45;9.25;;;3.90;90.20;;;;;;6196096;22;88890;-92
2023/04/02 21:36:09;;;;;;;15.52;9.18;;;3.90;90.30;;;;;;6195669;22;88309;-89
2023/04/02 21:38:35;;;;;;;13.93;8.20;;;3.80;90.10;;;;;;6196365;22;85935;-92
2023/04/02 21:41:19;;;;;;;14.07;8.80;;;3.80;90.00;;;;;;6196356;22;85020;-92
2023/04/02 21:43:47;;;;;;;12.10;9.00;;;3.70;90.30;;;;;;6196148;22;90209;-92
2023/04/02 21:46:16;;;;;;;12.57;7.93;;;3.70;90.50;;;;;;6195988;22;88484;-94
2023/04/02 21:48:42;;;;;;;16.35;8.63;;;3.60;90.50;;;;;;6196234;22;85098;-92
2023/04/02 21:51:16;;;;;;;15.23;8.50;;;3.60;90.60;;;;;;6195855;22;86036;-92
2023/04/02 21:53:43;;;;;;;12.07;8.38;;;3.50;90.70;;;;;;6196267;22;90141;-92
2023/04/02 21:56:12;;;;;;;14.88;8.60;;;3.50;90.80;;;;;;6195322;22;88306;-92
2023/04/02 21:58:37;;;;;;;13.65;8.30;;;3.50;90.90;;;;;;6222247;22;85954;-92
2023/04/02 22:01:04;;;;;;;15.82;8.35;;;3.50;90.80;;;;;;6195572;22;86035;-87
2023/04/02 22:03:31;;;;;;;12.73;8.20;;;3.40;91.00;;;;;;6195628;22;89124;-91
2023/04/02 22:06:06;;;;;;;10.75;7.57;;;3.40;91.00;;;;;;6195124;22;88432;-90
2023/04/02 22:08:32;;;;;;;11.52;8.18;;;3.40;91.10;;;;;;6187894;22;85636;-91
2023/04/02 22:11:10;;;;;;;12.98;7.90;;;3.30;91.30;;;;;;6163996;22;85812;-93
2023/04/02 22:13:38;;;;;;;12.02;8.02;;;3.30;91.10;;;;;;6163871;22;89985;-91
2023/04/02 22:16:06;;;;;;;12.02;7.93;;;3.20;91.00;;;;;;6164085;22;88978;-91
2023/04/02 22:18:32;;;;;;;13.80;7.38;;;3.20;91.30;;;;;;6164070;22;86090;-87
2023/04/02 22:20:59;;;;;;;12.82;7.15;;;3.20;91.40;;;;;;6163879;22;86014;-90
2023/04/02 22:23:26;;;;;;;13.10;7.30;;;3.10;91.50;;;;;;6163266;22;89059;-91
2023/04/02 22:25:52;;;;;;;13.52;8.00;;;3.10;91.60;;;;;;6163254;22;88436;-90
2023/04/02 22:28:19;;;;;;;13.50;7.55;;;3.10;91.70;;;;;;6163989;22;86017;-90
2023/04/02 22:30:45;;;;;;;16.90;7.65;;;3.10;91.70;;;;;;6188386;22;86099;-89
2023/04/02 22:36:34;;;;;;;14.85;7.72;;;3.00;91.70;;;;;;6189066;22;86116;-93
2023/04/02 22:39:00;;;;;;;13.50;7.47;;;3.00;91.80;;;;;;6172412;22;86624;-92
2023/04/02 22:41:30;;;;;;;11.70;7.47;;;2.90;91.80;;;;;;6195143;22;85971;-90
2023/04/02 22:43:58;;;;;;;11.52;7.20;;;2.90;91.70;;;;;;6195067;22;89188;-90
2023/04/02 22:46:25;;;;;;;11.18;6.78;;;2.90;91.40;;;;;;6195436;22;89565;-83
2023/04/02 22:48:51;;;;;;;13.85;7.20;;;2.90;91.50;;;;;;6195460;22;85744;-92
2023/04/02 22:51:19;;;;;;;12.88;7.50;;;2.80;91.70;;;;;;6195134;22;85417;-92
2023/04/02 22:53:45;;;;;;;12.32;7.53;;;2.80;91.70;;;;;;6195324;22;89261;-89
2023/04/02 22:56:16;;;;;;;13.88;7.95;;;2.80;92.10;;;;;;6195348;22;87554;-93
2023/04/02 23:09:03;;;;;;;13.38;6.75;;;2.70;92.20;;;;;;6222200;22;85547;-92
2023/04/02 23:11:29;;;;;;;11.93;7.50;;;2.60;91.90;;;;;;6195579;22;85757;-91
2023/04/02 23:13:56;;;;;;;13.40;6.80;;;2.60;92.00;;;;;;6195041;22;85878;-91
2023/04/02 23:16:25;;;;;;;12.23;6.68;;;2.60;92.20;;;;;;6194862;22;89902;-91
2023/04/02 23:18:51;;;;;;;10.35;6.80;;;2.50;91.90;;;;;;6194869;22;88856;-88
2023/04/02 23:21:18;;;;;;;12.23;6.97;;;2.50;91.80;;;;;;6194924;22;86028;-92
2023/04/02 23:23:45;;;;;;;10.30;6.78;;;2.50;91.80;;;;;;6195049;22;85591;-93
2023/04/02 23:26:20;;;;;;;14.27;7.95;;;2.40;91.80;;;;;;6194234;22;90007;-90
2023/04/02 23:28:46;;;;;;;9.35;6.35;;;2.40;92.00;;;;;;6194850;22;88428;-92
2023/04/02 23:31:18;;;;;;;13.13;7.65;;;2.40;91.90;;;;;;6194751;22;85635;-92
2023/04/02 23:33:44;;;;;;;10.60;7.40;;;2.30;92.10;;;;;;6221447;22;85765;-91
2023/04/02 23:36:19;;;;;;;12.90;7.50;;;2.30;92.10;;;;;;6194449;22;89236;-92